Hovedside
METAR-TAF:

METAR-TAF

Lufthavner :

Kristianstad, Sverige

breddegrad: 55-55N, lengdegrad: 014-05E, høyde over havet: 23 m

Gjeldene værobservasjon

Denne rapporten ble laget for 36 minutter siden, klokken 04:20 UTC
Vind 1 kt fra skiftende retning
Temperatur 5°C
Luftfuktighet 100%
Trykk 1016 hPa
Sikt: 1000 m
tåkebanker

METAR: ESMK 160420Z VRB01KT 1000 R01/P2000N R19/P2000N BCFG NSC 05/05 Q1016

Tid: 06:56 (04:56 UTC)

Varsel

Denne rapporten ble laget for 1 time og 29 minutter siden, klokken 03:27 UTC
Varsel gyldig fra 16. klokken 04 UTC til 16. klokken 12 UTC
Vind 2 kt fra skiftende retning
Sikt: 0100 m
tåke
Midlertidig
fra 16. klokken 04 UTC til 16. klokken 07 UTC
Sikt: 1500 m
Brutte skyer i en høyde av 100 ft
tåkebanker
Blir
fra 16. klokken 07 UTC til 16. klokken 09 UTC
Vind 6 kt fra Sør
Sikt 10 km eller mer

TAF: ESMK 160327Z 1604/1612 VRB02KT 0100 FG NSC TEMPO 1604/1607 1500 BCFG BKN001 BECMG 1607/1609 18006KT 9999 NSW

Værobservasjoner og værvarsel for over 4000 flyplasser (METAR- og TAF-rapporter).

Tilgjengelige stasjoner er representert av de røde og gule prikkene på kartet.

Hold musepekeren over prikken for å se navnet på stasjonen.

Klikk så for å se værobservasjoner og -varsler.

For å forandre kartet kan du klikke på den grønne knappen med svart kryss for å zoome inn, på den grønne knappen med strek for å zoome ut, eller på de grønne pilene for å se tilstøtende kart.


METAR-TAF: